sensor_id;sensor_type;location;lat;lon;timestamp;P1;durP1;ratioP1;P2;durP2;ratioP2
3207;SDS011;1616;52.394;9.756;2022-10-16T00:01:28;8.43;;;0.77;;
3207;SDS011;1616;52.394;9.756;2022-10-16T00:03:55;1.00;;;0.63;;
3207;SDS011;1616;52.394;9.756;2022-10-16T00:06:23;3.27;;;0.70;;
3207;SDS011;1616;52.394;9.756;2022-10-16T00:08:49;0.93;;;0.70;;
3207;SDS011;1616;52.394;9.756;2022-10-16T00:11:16;3.90;;;0.63;;
3207;SDS011;1616;52.394;9.756;2022-10-16T00:13:47;1.00;;;0.70;;
3207;SDS011;1616;52.394;9.756;2022-10-16T00:16:15;0.90;;;0.60;;
3207;SDS011;1616;52.394;9.756;2022-10-16T00:18:41;3.10;;;0.80;;
3207;SDS011;1616;52.394;9.756;2022-10-16T00:21:08;3.33;;;0.80;;
3207;SDS011;1616;52.394;9.756;2022-10-16T00:23:37;1.00;;;0.70;;
3207;SDS011;1616;52.394;9.756;2022-10-16T00:26:04;1.20;;;0.70;;
3207;SDS011;1616;52.394;9.756;2022-10-16T00:28:32;1.73;;;0.73;;
3207;SDS011;1616;52.394;9.756;2022-10-16T00:30:58;1.23;;;0.80;;
3207;SDS011;1616;52.394;9.756;2022-10-16T00:33:24;1.47;;;0.87;;
3207;SDS011;1616;52.394;9.756;2022-10-16T00:35:49;1.00;;;0.60;;
3207;SDS011;1616;52.394;9.756;2022-10-16T00:38:15;1.20;;;0.70;;
3207;SDS011;1616;52.394;9.756;2022-10-16T00:40:42;0.87;;;0.60;;
3207;SDS011;1616;52.394;9.756;2022-10-16T00:46:01;1.73;;;0.60;;
3207;SDS011;1616;52.394;9.756;2022-10-16T00:48:28;1.63;;;0.67;;
3207;SDS011;1616;52.394;9.756;2022-10-16T00:50:55;1.33;;;0.97;;
3207;SDS011;1616;52.394;9.756;2022-10-16T00:53:22;1.73;;;0.60;;
3207;SDS011;1616;52.394;9.756;2022-10-16T00:55:50;2.60;;;0.80;;
3207;SDS011;1616;52.394;9.756;2022-10-16T00:58:16;1.97;;;0.80;;
3207;SDS011;1616;52.394;9.756;2022-10-16T01:00:42;0.90;;;0.70;;
3207;SDS011;1616;52.394;9.756;2022-10-16T01:05:58;1.47;;;0.80;;
3207;SDS011;1616;52.394;9.756;2022-10-16T01:08:44;1.73;;;0.90;;
3207;SDS011;1616;52.394;9.756;2022-10-16T01:14:21;1.03;;;0.87;;
3207;SDS011;1616;52.394;9.756;2022-10-16T01:17:04;2.67;;;0.90;;
3207;SDS011;1616;52.394;9.756;2022-10-16T01:19:41;1.63;;;0.97;;
3207;SDS011;1616;52.394;9.756;2022-10-16T01:28:56;4.00;;;1.10;;
3207;SDS011;1616;52.394;9.756;2022-10-16T01:31:24;1.30;;;1.20;;
3207;SDS011;1616;52.394;9.756;2022-10-16T01:34:02;1.47;;;0.97;;
3207;SDS011;1616;52.394;9.756;2022-10-16T01:36:49;1.30;;;1.20;;
3207;SDS011;1616;52.394;9.756;2022-10-16T01:39:21;1.20;;;1.00;;
3207;SDS011;1616;52.394;9.756;2022-10-16T01:42:09;8.50;;;1.43;;
3207;SDS011;1616;52.394;9.756;2022-10-16T01:44:39;3.10;;;1.30;;
3207;SDS011;1616;52.394;9.756;2022-10-16T01:47:07;3.57;;;1.50;;
3207;SDS011;1616;52.394;9.756;2022-10-16T01:49:36;4.23;;;1.30;;
3207;SDS011;1616;52.394;9.756;2022-10-16T01:52:05;2.40;;;1.80;;
3207;SDS011;1616;52.394;9.756;2022-10-16T01:54:34;3.77;;;1.63;;
3207;SDS011;1616;52.394;9.756;2022-10-16T01:57:04;2.90;;;1.87;;
3207;SDS011;1616;52.394;9.756;2022-10-16T01:59:33;1.63;;;1.50;;
3207;SDS011;1616;52.394;9.756;2022-10-16T02:02:04;7.23;;;1.60;;
3207;SDS011;1616;52.394;9.756;2022-10-16T02:04:34;2.57;;;1.80;;
3207;SDS011;1616;52.394;9.756;2022-10-16T02:07:07;2.90;;;1.50;;
3207;SDS011;1616;52.394;9.756;2022-10-16T02:09:33;4.40;;;1.73;;
3207;SDS011;1616;52.394;9.756;2022-10-16T02:12:01;2.70;;;1.80;;
3207;SDS011;1616;52.394;9.756;2022-10-16T02:14:33;1.57;;;1.30;;
3207;SDS011;1616;52.394;9.756;2022-10-16T02:17:09;1.67;;;1.50;;
3207;SDS011;1616;52.394;9.756;2022-10-16T02:19:40;2.90;;;1.37;;
3207;SDS011;1616;52.394;9.756;2022-10-16T02:22:11;1.90;;;1.47;;
3207;SDS011;1616;52.394;9.756;2022-10-16T02:27:24;3.83;;;1.10;;
3207;SDS011;1616;52.394;9.756;2022-10-16T02:29:55;3.63;;;1.10;;
3207;SDS011;1616;52.394;9.756;2022-10-16T02:32:32;4.60;;;1.40;;
3207;SDS011;1616;52.394;9.756;2022-10-16T02:35:00;2.50;;;1.20;;
3207;SDS011;1616;52.394;9.756;2022-10-16T02:37:27;3.13;;;1.20;;
3207;SDS011;1616;52.394;9.756;2022-10-16T02:39:54;2.27;;;1.10;;
3207;SDS011;1616;52.394;9.756;2022-10-16T02:42:27;3.17;;;0.87;;
3207;SDS011;1616;52.394;9.756;2022-10-16T02:44:54;2.83;;;1.10;;
3207;SDS011;1616;52.394;9.756;2022-10-16T02:47:20;1.10;;;1.00;;
3207;SDS011;1616;52.394;9.756;2022-10-16T02:49:46;3.00;;;1.10;;
3207;SDS011;1616;52.394;9.756;2022-10-16T02:52:11;1.87;;;1.03;;
3207;SDS011;1616;52.394;9.756;2022-10-16T02:54:37;1.57;;;0.93;;
3207;SDS011;1616;52.394;9.756;2022-10-16T02:57:03;5.20;;;1.00;;
3207;SDS011;1616;52.394;9.756;2022-10-16T02:59:28;3.30;;;1.20;;
3207;SDS011;1616;52.394;9.756;2022-10-16T03:01:54;1.00;;;0.90;;
3207;SDS011;1616;52.394;9.756;2022-10-16T03:04:20;2.10;;;1.10;;
3207;SDS011;1616;52.394;9.756;2022-10-16T03:06:46;1.30;;;1.20;;
3207;SDS011;1616;52.394;9.756;2022-10-16T03:09:11;4.90;;;1.33;;
3207;SDS011;1616;52.394;9.756;2022-10-16T03:11:37;1.73;;;1.40;;
3207;SDS011;1616;52.394;9.756;2022-10-16T03:14:03;1.40;;;1.30;;
3207;SDS011;1616;52.394;9.756;2022-10-16T03:16:29;3.87;;;1.97;;
3207;SDS011;1616;52.394;9.756;2022-10-16T03:18:54;6.57;;;1.40;;
3207;SDS011;1616;52.394;9.756;2022-10-16T03:21:20;4.23;;;1.40;;
3207;SDS011;1616;52.394;9.756;2022-10-16T03:23:45;3.00;;;1.40;;
3207;SDS011;1616;52.394;9.756;2022-10-16T03:26:11;4.20;;;1.77;;
3207;SDS011;1616;52.394;9.756;2022-10-16T03:28:37;3.07;;;1.33;;
3207;SDS011;1616;52.394;9.756;2022-10-16T03:31:02;4.03;;;1.40;;
3207;SDS011;1616;52.394;9.756;2022-10-16T03:33:28;3.50;;;1.40;;
3207;SDS011;1616;52.394;9.756;2022-10-16T03:35:54;4.10;;;1.20;;
3207;SDS011;1616;52.394;9.756;2022-10-16T03:38:21;5.10;;;1.80;;
3207;SDS011;1616;52.394;9.756;2022-10-16T03:40:47;12.97;;;1.50;;
3207;SDS011;1616;52.394;9.756;2022-10-16T03:43:13;1.60;;;1.20;;
3207;SDS011;1616;52.394;9.756;2022-10-16T03:45:39;3.20;;;1.70;;
3207;SDS011;1616;52.394;9.756;2022-10-16T03:48:05;3.67;;;1.60;;
3207;SDS011;1616;52.394;9.756;2022-10-16T03:50:31;7.00;;;1.57;;
3207;SDS011;1616;52.394;9.756;2022-10-16T03:52:57;11.40;;;1.40;;
3207;SDS011;1616;52.394;9.756;2022-10-16T03:55:22;3.00;;;1.40;;
3207;SDS011;1616;52.394;9.756;2022-10-16T03:57:48;3.77;;;1.30;;
3207;SDS011;1616;52.394;9.756;2022-10-16T04:00:14;1.73;;;1.33;;
3207;SDS011;1616;52.394;9.756;2022-10-16T04:02:40;1.60;;;1.40;;
3207;SDS011;1616;52.394;9.756;2022-10-16T04:05:06;13.93;;;2.20;;
3207;SDS011;1616;52.394;9.756;2022-10-16T04:07:32;3.10;;;1.30;;
3207;SDS011;1616;52.394;9.756;2022-10-16T04:09:58;4.03;;;1.40;;
3207;SDS011;1616;52.394;9.756;2022-10-16T04:12:24;2.10;;;1.30;;
3207;SDS011;1616;52.394;9.756;2022-10-16T04:14:51;3.20;;;1.47;;
3207;SDS011;1616;52.394;9.756;2022-10-16T04:17:16;2.50;;;1.40;;
3207;SDS011;1616;52.394;9.756;2022-10-16T04:19:42;2.90;;;1.90;;
3207;SDS011;1616;52.394;9.756;2022-10-16T04:22:07;3.53;;;1.40;;
3207;SDS011;1616;52.394;9.756;2022-10-16T04:24:33;4.50;;;1.40;;
3207;SDS011;1616;52.394;9.756;2022-10-16T04:26:59;2.50;;;2.00;;
3207;SDS011;1616;52.394;9.756;2022-10-16T04:29:25;3.03;;;1.60;;
3207;SDS011;1616;52.394;9.756;2022-10-16T04:31:50;1.60;;;1.40;;
3207;SDS011;1616;52.394;9.756;2022-10-16T04:34:16;3.07;;;1.30;;
3207;SDS011;1616;52.394;9.756;2022-10-16T04:36:42;3.77;;;1.60;;
3207;SDS011;1616;52.394;9.756;2022-10-16T04:39:08;5.33;;;1.60;;
3207;SDS011;1616;52.394;9.756;2022-10-16T04:41:33;5.23;;;1.80;;
3207;SDS011;1616;52.394;9.756;2022-10-16T04:43:59;2.23;;;1.83;;
3207;SDS011;1616;52.394;9.756;2022-10-16T04:46:25;2.93;;;1.80;;
3207;SDS011;1616;52.394;9.756;2022-10-16T04:48:50;4.80;;;1.70;;
3207;SDS011;1616;52.394;9.756;2022-10-16T04:51:16;3.87;;;1.83;;
3207;SDS011;1616;52.394;9.756;2022-10-16T04:53:43;2.50;;;1.73;;
3207;SDS011;1616;52.394;9.756;2022-10-16T04:56:09;5.03;;;1.63;;
3207;SDS011;1616;52.394;9.756;2022-10-16T04:58:35;2.60;;;1.60;;
3207;SDS011;1616;52.394;9.756;2022-10-16T05:01:00;2.80;;;1.80;;
3207;SDS011;1616;52.394;9.756;2022-10-16T05:03:26;2.57;;;1.67;;
3207;SDS011;1616;52.394;9.756;2022-10-16T05:05:52;2.03;;;1.93;;
3207;SDS011;1616;52.394;9.756;2022-10-16T05:08:17;5.60;;;2.37;;
3207;SDS011;1616;52.394;9.756;2022-10-16T05:10:44;2.43;;;2.07;;
3207;SDS011;1616;52.394;9.756;2022-10-16T05:13:10;2.40;;;1.60;;
3207;SDS011;1616;52.394;9.756;2022-10-16T05:15:36;1.90;;;1.67;;
3207;SDS011;1616;52.394;9.756;2022-10-16T05:18:03;2.87;;;2.47;;
3207;SDS011;1616;52.394;9.756;2022-10-16T05:20:29;5.90;;;2.43;;
3207;SDS011;1616;52.394;9.756;2022-10-16T05:22:54;5.40;;;2.90;;
3207;SDS011;1616;52.394;9.756;2022-10-16T05:25:20;1.60;;;1.50;;
3207;SDS011;1616;52.394;9.756;2022-10-16T05:27:49;3.70;;;1.80;;
3207;SDS011;1616;52.394;9.756;2022-10-16T05:30:15;3.17;;;2.00;;
3207;SDS011;1616;52.394;9.756;2022-10-16T05:32:45;5.53;;;2.23;;
3207;SDS011;1616;52.394;9.756;2022-10-16T05:35:15;2.20;;;2.00;;
3207;SDS011;1616;52.394;9.756;2022-10-16T05:37:41;2.50;;;1.83;;
3207;SDS011;1616;52.394;9.756;2022-10-16T05:40:08;6.20;;;1.60;;
3207;SDS011;1616;52.394;9.756;2022-10-16T05:42:34;1.80;;;1.70;;
3207;SDS011;1616;52.394;9.756;2022-10-16T05:45:00;4.40;;;1.90;;
3207;SDS011;1616;52.394;9.756;2022-10-16T05:47:26;2.33;;;1.90;;
3207;SDS011;1616;52.394;9.756;2022-10-16T05:49:52;3.73;;;2.20;;
3207;SDS011;1616;52.394;9.756;2022-10-16T05:52:18;2.30;;;1.67;;
3207;SDS011;1616;52.394;9.756;2022-10-16T05:54:44;2.33;;;2.13;;
3207;SDS011;1616;52.394;9.756;2022-10-16T05:57:10;4.80;;;1.70;;
3207;SDS011;1616;52.394;9.756;2022-10-16T05:59:36;4.30;;;2.00;;
3207;SDS011;1616;52.394;9.756;2022-10-16T06:02:02;1.90;;;1.80;;
3207;SDS011;1616;52.394;9.756;2022-10-16T06:04:27;2.17;;;2.07;;
3207;SDS011;1616;52.394;9.756;2022-10-16T06:06:53;9.20;;;2.50;;
3207;SDS011;1616;52.394;9.756;2022-10-16T06:09:18;2.10;;;1.90;;
3207;SDS011;1616;52.394;9.756;2022-10-16T06:11:44;2.30;;;2.10;;
3207;SDS011;1616;52.394;9.756;2022-10-16T06:14:10;1.77;;;1.67;;
3207;SDS011;1616;52.394;9.756;2022-10-16T06:16:36;1.73;;;1.63;;
3207;SDS011;1616;52.394;9.756;2022-10-16T06:19:03;1.60;;;1.50;;
3207;SDS011;1616;52.394;9.756;2022-10-16T06:21:32;4.60;;;1.90;;
3207;SDS011;1616;52.394;9.756;2022-10-16T06:23:58;7.73;;;1.50;;
3207;SDS011;1616;52.394;9.756;2022-10-16T06:26:25;1.87;;;1.20;;
3207;SDS011;1616;52.394;9.756;2022-10-16T06:28:53;1.77;;;1.40;;
3207;SDS011;1616;52.394;9.756;2022-10-16T06:31:20;2.40;;;1.30;;
3207;SDS011;1616;52.394;9.756;2022-10-16T06:33:49;2.83;;;1.40;;
3207;SDS011;1616;52.394;9.756;2022-10-16T06:36:16;1.20;;;1.00;;
3207;SDS011;1616;52.394;9.756;2022-10-16T06:38:43;1.53;;;1.30;;
3207;SDS011;1616;52.394;9.756;2022-10-16T06:41:09;1.67;;;1.20;;
3207;SDS011;1616;52.394;9.756;2022-10-16T06:43:37;1.30;;;1.20;;
3207;SDS011;1616;52.394;9.756;2022-10-16T06:46:04;1.90;;;0.83;;
3207;SDS011;1616;52.394;9.756;2022-10-16T06:48:33;2.43;;;1.10;;
3207;SDS011;1616;52.394;9.756;2022-10-16T06:51:00;6.53;;;1.27;;
3207;SDS011;1616;52.394;9.756;2022-10-16T06:53:31;5.20;;;0.97;;
3207;SDS011;1616;52.394;9.756;2022-10-16T06:56:21;1.17;;;0.90;;
3207;SDS011;1616;52.394;9.756;2022-10-16T06:58:49;9.03;;;1.20;;
3207;SDS011;1616;52.394;9.756;2022-10-16T07:01:16;5.00;;;1.00;;
3207;SDS011;1616;52.394;9.756;2022-10-16T07:03:43;1.30;;;0.80;;
3207;SDS011;1616;52.394;9.756;2022-10-16T07:06:11;2.60;;;1.00;;
3207;SDS011;1616;52.394;9.756;2022-10-16T07:08:38;2.90;;;1.00;;
3207;SDS011;1616;52.394;9.756;2022-10-16T07:11:07;1.10;;;1.00;;
3207;SDS011;1616;52.394;9.756;2022-10-16T07:13:35;1.00;;;0.90;;
3207;SDS011;1616;52.394;9.756;2022-10-16T07:16:11;1.10;;;0.80;;
3207;SDS011;1616;52.394;9.756;2022-10-16T07:18:39;0.90;;;0.80;;
3207;SDS011;1616;52.394;9.756;2022-10-16T07:21:08;3.53;;;0.90;;
3207;SDS011;1616;52.394;9.756;2022-10-16T07:23:36;1.30;;;0.80;;
3207;SDS011;1616;52.394;9.756;2022-10-16T07:26:02;2.13;;;0.80;;
3207;SDS011;1616;52.394;9.756;2022-10-16T07:28:29;1.30;;;0.70;;
3207;SDS011;1616;52.394;9.756;2022-10-16T07:30:55;0.83;;;0.70;;
3207;SDS011;1616;52.394;9.756;2022-10-16T07:33:25;2.40;;;0.80;;
3207;SDS011;1616;52.394;9.756;2022-10-16T07:35:51;1.17;;;0.80;;
3207;SDS011;1616;52.394;9.756;2022-10-16T07:38:18;2.90;;;0.80;;
3207;SDS011;1616;52.394;9.756;2022-10-16T07:40:44;3.23;;;0.73;;
3207;SDS011;1616;52.394;9.756;2022-10-16T07:43:10;1.97;;;0.80;;
3207;SDS011;1616;52.394;9.756;2022-10-16T07:45:36;1.10;;;0.77;;
3207;SDS011;1616;52.394;9.756;2022-10-16T07:48:02;0.80;;;0.60;;
3207;SDS011;1616;52.394;9.756;2022-10-16T07:50:28;2.70;;;1.00;;
3207;SDS011;1616;52.394;9.756;2022-10-16T07:52:55;0.97;;;0.67;;
3207;SDS011;1616;52.394;9.756;2022-10-16T07:55:20;4.00;;;0.80;;
3207;SDS011;1616;52.394;9.756;2022-10-16T07:57:46;1.30;;;1.00;;
3207;SDS011;1616;52.394;9.756;2022-10-16T08:00:12;2.60;;;0.90;;
3207;SDS011;1616;52.394;9.756;2022-10-16T08:02:39;1.20;;;0.73;;
3207;SDS011;1616;52.394;9.756;2022-10-16T08:05:05;1.10;;;0.60;;
3207;SDS011;1616;52.394;9.756;2022-10-16T08:07:31;0.97;;;0.70;;
3207;SDS011;1616;52.394;9.756;2022-10-16T08:09:57;0.90;;;0.60;;
3207;SDS011;1616;52.394;9.756;2022-10-16T08:12:24;1.20;;;0.80;;
3207;SDS011;1616;52.394;9.756;2022-10-16T08:14:50;1.00;;;0.70;;
3207;SDS011;1616;52.394;9.756;2022-10-16T08:17:16;1.47;;;0.73;;
3207;SDS011;1616;52.394;9.756;2022-10-16T08:19:45;2.50;;;0.70;;
3207;SDS011;1616;52.394;9.756;2022-10-16T08:22:12;0.90;;;0.57;;
3207;SDS011;1616;52.394;9.756;2022-10-16T08:24:38;2.17;;;0.90;;
3207;SDS011;1616;52.394;9.756;2022-10-16T08:27:04;1.10;;;0.80;;
3207;SDS011;1616;52.394;9.756;2022-10-16T08:29:30;1.37;;;0.93;;
3207;SDS011;1616;52.394;9.756;2022-10-16T08:31:56;0.90;;;0.60;;
3207;SDS011;1616;52.394;9.756;2022-10-16T08:34:22;1.37;;;0.77;;
3207;SDS011;1616;52.394;9.756;2022-10-16T08:36:47;2.60;;;0.50;;
3207;SDS011;1616;52.394;9.756;2022-10-16T08:39:13;1.30;;;0.80;;
3207;SDS011;1616;52.394;9.756;2022-10-16T08:44:30;0.97;;;0.60;;
3207;SDS011;1616;52.394;9.756;2022-10-16T08:50:13;1.03;;;0.70;;
3207;SDS011;1616;52.394;9.756;2022-10-16T08:52:44;0.90;;;0.70;;
3207;SDS011;1616;52.394;9.756;2022-10-16T08:55:28;0.80;;;0.60;;
3207;SDS011;1616;52.394;9.756;2022-10-16T08:57:54;0.90;;;0.50;;
3207;SDS011;1616;52.394;9.756;2022-10-16T09:00:20;1.20;;;0.60;;
3207;SDS011;1616;52.394;9.756;2022-10-16T09:16:46;0.90;;;0.67;;
3207;SDS011;1616;52.394;9.756;2022-10-16T09:22:09;0.73;;;0.50;;
3207;SDS011;1616;52.394;9.756;2022-10-16T09:24:39;0.73;;;0.57;;
3207;SDS011;1616;52.394;9.756;2022-10-16T09:27:07;0.80;;;0.53;;
3207;SDS011;1616;52.394;9.756;2022-10-16T09:29:36;1.00;;;0.60;;
3207;SDS011;1616;52.394;9.756;2022-10-16T09:32:13;0.90;;;0.60;;
3207;SDS011;1616;52.394;9.756;2022-10-16T09:34:48;1.40;;;0.60;;
3207;SDS011;1616;52.394;9.756;2022-10-16T09:37:18;0.90;;;0.60;;
3207;SDS011;1616;52.394;9.756;2022-10-16T09:39:50;1.30;;;0.50;;
3207;SDS011;1616;52.394;9.756;2022-10-16T09:42:22;0.83;;;0.60;;
3207;SDS011;1616;52.394;9.756;2022-10-16T09:44:52;0.80;;;0.50;;
3207;SDS011;1616;52.394;9.756;2022-10-16T09:47:37;1.33;;;0.73;;
3207;SDS011;1616;52.394;9.756;2022-10-16T09:50:22;0.80;;;0.50;;
3207;SDS011;1616;52.394;9.756;2022-10-16T09:53:25;2.57;;;0.60;;
3207;SDS011;1616;52.394;9.756;2022-10-16T09:55:51;3.13;;;0.60;;
3207;SDS011;1616;52.394;9.756;2022-10-16T09:58:21;7.40;;;0.60;;
3207;SDS011;1616;52.394;9.756;2022-10-16T10:00:49;0.80;;;0.53;;
3207;SDS011;1616;52.394;9.756;2022-10-16T10:03:33;0.80;;;0.60;;
3207;SDS011;1616;52.394;9.756;2022-10-16T10:06:22;2.03;;;0.63;;
3207;SDS011;1616;52.394;9.756;2022-10-16T10:09:00;0.90;;;0.50;;
3207;SDS011;1616;52.394;9.756;2022-10-16T10:14:17;0.80;;;0.50;;
3207;SDS011;1616;52.394;9.756;2022-10-16T10:16:48;2.38;;;0.70;;
3207;SDS011;1616;52.394;9.756;2022-10-16T10:19:16;1.10;;;0.60;;
3207;SDS011;1616;52.394;9.756;2022-10-16T10:21:43;2.17;;;0.50;;
3207;SDS011;1616;52.394;9.756;2022-10-16T10:24:10;1.00;;;0.60;;
3207;SDS011;1616;52.394;9.756;2022-10-16T10:26:37;1.37;;;0.60;;
3207;SDS011;1616;52.394;9.756;2022-10-16T10:32:00;1.10;;;0.63;;
3207;SDS011;1616;52.394;9.756;2022-10-16T10:34:35;3.33;;;0.70;;
3207;SDS011;1616;52.394;9.756;2022-10-16T10:43:54;3.37;;;0.70;;
3207;SDS011;1616;52.394;9.756;2022-10-16T10:46:00;0.87;;;0.60;;
3207;SDS011;1616;52.394;9.756;2022-10-16T10:48:47;1.63;;;0.70;;
3207;SDS011;1616;52.394;9.756;2022-10-16T10:54:14;2.23;;;0.70;;
3207;SDS011;1616;52.394;9.756;2022-10-16T10:57:10;2.23;;;0.70;;
3207;SDS011;1616;52.394;9.756;2022-10-16T11:02:35;1.20;;;0.53;;
3207;SDS011;1616;52.394;9.756;2022-10-16T11:08:06;0.80;;;0.60;;
3207;SDS011;1616;52.394;9.756;2022-10-16T11:13:26;1.10;;;0.70;;
3207;SDS011;1616;52.394;9.756;2022-10-16T11:16:16;1.00;;;0.57;;
3207;SDS011;1616;52.394;9.756;2022-10-16T11:22:01;1.10;;;0.60;;
3207;SDS011;1616;52.394;9.756;2022-10-16T11:27:22;1.23;;;0.67;;
3207;SDS011;1616;52.394;9.756;2022-10-16T11:29:57;2.13;;;0.70;;
3207;SDS011;1616;52.394;9.756;2022-10-16T11:38:36;1.30;;;0.70;;
3207;SDS011;1616;52.394;9.756;2022-10-16T11:49:41;0.90;;;0.50;;
3207;SDS011;1616;52.394;9.756;2022-10-16T11:52:17;2.40;;;0.90;;
3207;SDS011;1616;52.394;9.756;2022-10-16T11:55:01;1.20;;;0.70;;
3207;SDS011;1616;52.394;9.756;2022-10-16T11:57:35;1.00;;;0.60;;
3207;SDS011;1616;52.394;9.756;2022-10-16T12:02:50;1.40;;;0.70;;
3207;SDS011;1616;52.394;9.756;2022-10-16T12:08:52;1.30;;;0.70;;
3207;SDS011;1616;52.394;9.756;2022-10-16T12:11:38;2.80;;;0.67;;
3207;SDS011;1616;52.394;9.756;2022-10-16T12:14:05;1.57;;;0.60;;
3207;SDS011;1616;52.394;9.756;2022-10-16T12:16:32;0.90;;;0.50;;
3207;SDS011;1616;52.394;9.756;2022-10-16T12:19:11;0.80;;;0.50;;
3207;SDS011;1616;52.394;9.756;2022-10-16T12:21:41;1.20;;;0.53;;
3207;SDS011;1616;52.394;9.756;2022-10-16T12:24:22;1.00;;;0.60;;
3207;SDS011;1616;52.394;9.756;2022-10-16T12:27:04;1.37;;;0.57;;
3207;SDS011;1616;52.394;9.756;2022-10-16T12:29:36;1.57;;;0.50;;
3207;SDS011;1616;52.394;9.756;2022-10-16T12:32:45;1.40;;;0.60;;
3207;SDS011;1616;52.394;9.756;2022-10-16T12:35:00;1.10;;;0.50;;
3207;SDS011;1616;52.394;9.756;2022-10-16T12:37:34;1.50;;;0.60;;
3207;SDS011;1616;52.394;9.756;2022-10-16T12:40:12;0.90;;;0.50;;
3207;SDS011;1616;52.394;9.756;2022-10-16T12:42:40;1.60;;;0.40;;
3207;SDS011;1616;52.394;9.756;2022-10-16T12:47:53;4.70;;;0.67;;
3207;SDS011;1616;52.394;9.756;2022-10-16T12:50:28;1.10;;;0.50;;
3207;SDS011;1616;52.394;9.756;2022-10-16T12:53:03;1.73;;;0.70;;
3207;SDS011;1616;52.394;9.756;2022-10-16T12:55:47;1.00;;;0.50;;
3207;SDS011;1616;52.394;9.756;2022-10-16T12:58:24;1.00;;;0.60;;
3207;SDS011;1616;52.394;9.756;2022-10-16T13:01:07;1.10;;;0.60;;
3207;SDS011;1616;52.394;9.756;2022-10-16T13:03:57;1.07;;;0.50;;
3207;SDS011;1616;52.394;9.756;2022-10-16T13:14:52;0.90;;;0.60;;
3207;SDS011;1616;52.394;9.756;2022-10-16T13:27:54;7.50;;;0.60;;
3207;SDS011;1616;52.394;9.756;2022-10-16T13:30:35;1.00;;;0.80;;
3207;SDS011;1616;52.394;9.756;2022-10-16T13:35:35;1.37;;;0.60;;
3207;SDS011;1616;52.394;9.756;2022-10-16T13:38:20;1.00;;;0.63;;
3207;SDS011;1616;52.394;9.756;2022-10-16T13:40:59;1.20;;;0.50;;
3207;SDS011;1616;52.394;9.756;2022-10-16T13:46:18;0.90;;;0.43;;
3207;SDS011;1616;52.394;9.756;2022-10-16T13:48:57;1.00;;;0.60;;
3207;SDS011;1616;52.394;9.756;2022-10-16T13:51:53;1.10;;;0.63;;
3207;SDS011;1616;52.394;9.756;2022-10-16T13:54:20;1.20;;;0.63;;
3207;SDS011;1616;52.394;9.756;2022-10-16T13:56:46;2.03;;;0.70;;
3207;SDS011;1616;52.394;9.756;2022-10-16T13:59:32;3.43;;;0.60;;
3207;SDS011;1616;52.394;9.756;2022-10-16T14:01:59;1.07;;;0.50;;
3207;SDS011;1616;52.394;9.756;2022-10-16T14:04:32;0.93;;;0.50;;
3207;SDS011;1616;52.394;9.756;2022-10-16T14:06:58;1.00;;;0.60;;
3207;SDS011;1616;52.394;9.756;2022-10-16T14:09:25;1.00;;;0.50;;
3207;SDS011;1616;52.394;9.756;2022-10-16T14:11:55;1.13;;;0.60;;
3207;SDS011;1616;52.394;9.756;2022-10-16T14:14:27;1.37;;;0.50;;
3207;SDS011;1616;52.394;9.756;2022-10-16T14:16:59;0.90;;;0.70;;
3207;SDS011;1616;52.394;9.756;2022-10-16T14:19:25;0.90;;;0.53;;
3207;SDS011;1616;52.394;9.756;2022-10-16T14:21:54;1.90;;;0.60;;
3207;SDS011;1616;52.394;9.756;2022-10-16T14:24:27;1.27;;;0.70;;
3207;SDS011;1616;52.394;9.756;2022-10-16T14:27:00;0.90;;;0.60;;
3207;SDS011;1616;52.394;9.756;2022-10-16T14:29:27;0.87;;;0.60;;
3207;SDS011;1616;52.394;9.756;2022-10-16T14:37:05;1.83;;;0.70;;
3207;SDS011;1616;52.394;9.756;2022-10-16T14:39:48;1.40;;;0.60;;
3207;SDS011;1616;52.394;9.756;2022-10-16T14:42:16;2.07;;;0.60;;
3207;SDS011;1616;52.394;9.756;2022-10-16T14:44:44;0.80;;;0.50;;
3207;SDS011;1616;52.394;9.756;2022-10-16T14:47:15;0.90;;;0.60;;
3207;SDS011;1616;52.394;9.756;2022-10-16T14:49:47;1.20;;;0.70;;
3207;SDS011;1616;52.394;9.756;2022-10-16T14:52:13;1.10;;;0.60;;
3207;SDS011;1616;52.394;9.756;2022-10-16T14:54:40;0.90;;;0.60;;
3207;SDS011;1616;52.394;9.756;2022-10-16T14:57:13;1.10;;;0.70;;
3207;SDS011;1616;52.394;9.756;2022-10-16T14:59:42;1.00;;;0.60;;
3207;SDS011;1616;52.394;9.756;2022-10-16T15:05:20;6.90;;;0.77;;
3207;SDS011;1616;52.394;9.756;2022-10-16T15:07:48;1.10;;;0.70;;
3207;SDS011;1616;52.394;9.756;2022-10-16T15:10:16;1.13;;;0.70;;
3207;SDS011;1616;52.394;9.756;2022-10-16T15:12:43;1.00;;;0.70;;
3207;SDS011;1616;52.394;9.756;2022-10-16T15:15:15;1.83;;;1.30;;
3207;SDS011;1616;52.394;9.756;2022-10-16T15:17:46;2.13;;;0.70;;
3207;SDS011;1616;52.394;9.756;2022-10-16T15:20:13;1.20;;;0.60;;
3207;SDS011;1616;52.394;9.756;2022-10-16T15:22:39;1.00;;;0.60;;
3207;SDS011;1616;52.394;9.756;2022-10-16T15:28:07;1.37;;;0.70;;
3207;SDS011;1616;52.394;9.756;2022-10-16T15:30:34;1.40;;;0.70;;
3207;SDS011;1616;52.394;9.756;2022-10-16T15:33:01;3.20;;;0.70;;
3207;SDS011;1616;52.394;9.756;2022-10-16T15:35:27;2.20;;;0.70;;
3207;SDS011;1616;52.394;9.756;2022-10-16T15:37:54;1.10;;;0.80;;
3207;SDS011;1616;52.394;9.756;2022-10-16T15:40:20;1.00;;;0.70;;
3207;SDS011;1616;52.394;9.756;2022-10-16T15:42:47;2.13;;;0.70;;
3207;SDS011;1616;52.394;9.756;2022-10-16T15:45:13;1.10;;;0.70;;
3207;SDS011;1616;52.394;9.756;2022-10-16T15:47:40;1.80;;;0.70;;
3207;SDS011;1616;52.394;9.756;2022-10-16T15:50:09;1.20;;;0.70;;
3207;SDS011;1616;52.394;9.756;2022-10-16T15:52:36;3.77;;;0.80;;
3207;SDS011;1616;52.394;9.756;2022-10-16T15:55:05;2.37;;;0.90;;
3207;SDS011;1616;52.394;9.756;2022-10-16T15:57:35;1.17;;;0.83;;
3207;SDS011;1616;52.394;9.756;2022-10-16T16:00:05;3.50;;;1.03;;
3207;SDS011;1616;52.394;9.756;2022-10-16T16:02:42;1.20;;;0.70;;
3207;SDS011;1616;52.394;9.756;2022-10-16T16:05:09;2.47;;;0.80;;
3207;SDS011;1616;52.394;9.756;2022-10-16T16:07:36;2.00;;;0.80;;
3207;SDS011;1616;52.394;9.756;2022-10-16T16:10:03;1.03;;;0.70;;
3207;SDS011;1616;52.394;9.756;2022-10-16T16:12:31;1.30;;;0.80;;
3207;SDS011;1616;52.394;9.756;2022-10-16T16:14:57;1.57;;;1.10;;
3207;SDS011;1616;52.394;9.756;2022-10-16T16:17:22;4.20;;;2.37;;
3207;SDS011;1616;52.394;9.756;2022-10-16T16:19:49;3.60;;;1.50;;
3207;SDS011;1616;52.394;9.756;2022-10-16T16:22:15;2.40;;;1.30;;
3207;SDS011;1616;52.394;9.756;2022-10-16T16:24:42;3.73;;;1.60;;
3207;SDS011;1616;52.394;9.756;2022-10-16T16:27:08;2.23;;;1.30;;
3207;SDS011;1616;52.394;9.756;2022-10-16T16:29:34;6.60;;;2.73;;
3207;SDS011;1616;52.394;9.756;2022-10-16T16:32:00;5.33;;;3.93;;
3207;SDS011;1616;52.394;9.756;2022-10-16T16:34:26;4.97;;;2.27;;
3207;SDS011;1616;52.394;9.756;2022-10-16T16:36:53;4.87;;;4.57;;
3207;SDS011;1616;52.394;9.756;2022-10-16T16:39:19;2.57;;;2.03;;
3207;SDS011;1616;52.394;9.756;2022-10-16T16:41:46;3.23;;;2.40;;
3207;SDS011;1616;52.394;9.756;2022-10-16T16:44:12;3.70;;;2.50;;
3207;SDS011;1616;52.394;9.756;2022-10-16T16:46:38;6.07;;;4.90;;
3207;SDS011;1616;52.394;9.756;2022-10-16T16:49:05;7.37;;;6.60;;
3207;SDS011;1616;52.394;9.756;2022-10-16T16:51:31;3.97;;;3.47;;
3207;SDS011;1616;52.394;9.756;2022-10-16T16:53:58;9.23;;;2.80;;
3207;SDS011;1616;52.394;9.756;2022-10-16T16:56:24;3.80;;;3.50;;
3207;SDS011;1616;52.394;9.756;2022-10-16T16:58:51;4.60;;;3.87;;
3207;SDS011;1616;52.394;9.756;2022-10-16T17:01:18;7.87;;;7.10;;
3207;SDS011;1616;52.394;9.756;2022-10-16T17:03:45;11.00;;;6.73;;
3207;SDS011;1616;52.394;9.756;2022-10-16T17:06:12;9.63;;;7.30;;
3207;SDS011;1616;52.394;9.756;2022-10-16T17:08:39;6.83;;;4.60;;
3207;SDS011;1616;52.394;9.756;2022-10-16T17:11:05;5.50;;;4.23;;
3207;SDS011;1616;52.394;9.756;2022-10-16T17:13:32;6.93;;;4.10;;
3207;SDS011;1616;52.394;9.756;2022-10-16T17:16:02;6.30;;;5.17;;
3207;SDS011;1616;52.394;9.756;2022-10-16T17:18:29;5.77;;;4.17;;
3207;SDS011;1616;52.394;9.756;2022-10-16T17:20:58;12.80;;;2.43;;
3207;SDS011;1616;52.394;9.756;2022-10-16T17:23:24;4.77;;;2.33;;
3207;SDS011;1616;52.394;9.756;2022-10-16T17:25:50;3.07;;;2.67;;
3207;SDS011;1616;52.394;9.756;2022-10-16T17:28:16;2.80;;;2.60;;
3207;SDS011;1616;52.394;9.756;2022-10-16T17:30:42;4.50;;;1.90;;
3207;SDS011;1616;52.394;9.756;2022-10-16T17:33:08;2.00;;;1.80;;
3207;SDS011;1616;52.394;9.756;2022-10-16T17:35:36;14.63;;;2.53;;
3207;SDS011;1616;52.394;9.756;2022-10-16T17:38:10;6.30;;;5.60;;